sensor_id;sensor_type;location;lat;lon;timestamp;pressure;altitude;pressure_sealevel;temperature;humidity
49585;BME280;35491;49.142;9.210;2023-03-13T00:00:11;99376.81;;;9.91;62.21
49585;BME280;35491;49.142;9.210;2023-03-13T00:01:13;99379.31;;;9.92;61.91
49585;BME280;35491;49.142;9.210;2023-03-13T00:02:18;99377.34;;;9.94;62.13
49585;BME280;35491;49.142;9.210;2023-03-13T00:04:29;99378.69;;;9.98;61.98
49585;BME280;35491;49.142;9.210;2023-03-13T00:05:40;99377.56;;;10.01;61.73
49585;BME280;35491;49.142;9.210;2023-03-13T00:06:43;99375.88;;;10.00;62.03
49585;BME280;35491;49.142;9.210;2023-03-13T00:07:48;99381.81;;;9.94;62.06
49585;BME280;35491;49.142;9.210;2023-03-13T00:08:52;99373.00;;;9.93;62.12
49585;BME280;35491;49.142;9.210;2023-03-13T00:10:00;99375.44;;;9.87;62.32
49585;BME280;35491;49.142;9.210;2023-03-13T00:11:02;99379.41;;;9.82;62.47
49585;BME280;35491;49.142;9.210;2023-03-13T00:12:06;99376.38;;;9.77;62.89
49585;BME280;35491;49.142;9.210;2023-03-13T00:13:07;99369.88;;;9.80;62.96
49585;BME280;35491;49.142;9.210;2023-03-13T00:14:11;99369.19;;;9.78;62.83
49585;BME280;35491;49.142;9.210;2023-03-13T00:15:15;99369.19;;;9.78;62.88
49585;BME280;35491;49.142;9.210;2023-03-13T00:16:19;99359.53;;;9.77;62.87
49585;BME280;35491;49.142;9.210;2023-03-13T00:17:20;99365.72;;;9.77;63.07
49585;BME280;35491;49.142;9.210;2023-03-13T00:18:24;99358.53;;;9.78;62.91
49585;BME280;35491;49.142;9.210;2023-03-13T00:19:25;99358.00;;;9.74;63.30
49585;BME280;35491;49.142;9.210;2023-03-13T00:20:29;99352.66;;;9.74;62.99
49585;BME280;35491;49.142;9.210;2023-03-13T00:21:30;99351.31;;;9.70;63.21
49585;BME280;35491;49.142;9.210;2023-03-13T00:22:34;99352.00;;;9.72;63.01
49585;BME280;35491;49.142;9.210;2023-03-13T00:23:36;99354.28;;;9.67;63.59
49585;BME280;35491;49.142;9.210;2023-03-13T00:24:40;99350.94;;;9.65;63.37
49585;BME280;35491;49.142;9.210;2023-03-13T00:25:41;99352.09;;;9.62;63.56
49585;BME280;35491;49.142;9.210;2023-03-13T00:26:45;99351.25;;;9.62;63.80
49585;BME280;35491;49.142;9.210;2023-03-13T00:27:46;99351.41;;;9.60;63.89
49585;BME280;35491;49.142;9.210;2023-03-13T00:28:50;99344.78;;;9.64;63.88
49585;BME280;35491;49.142;9.210;2023-03-13T00:29:51;99348.19;;;9.57;63.71
49585;BME280;35491;49.142;9.210;2023-03-13T00:31:04;99344.25;;;9.61;63.84
49585;BME280;35491;49.142;9.210;2023-03-13T00:32:06;99343.56;;;9.59;63.69
49585;BME280;35491;49.142;9.210;2023-03-13T00:33:10;99344.84;;;9.55;64.22
49585;BME280;35491;49.142;9.210;2023-03-13T00:34:11;99343.72;;;9.57;63.80
49585;BME280;35491;49.142;9.210;2023-03-13T00:35:15;99344.84;;;9.55;64.07
49585;BME280;35491;49.142;9.210;2023-03-13T00:36:17;99336.84;;;9.55;64.28
49585;BME280;35491;49.142;9.210;2023-03-13T00:37:21;99338.69;;;9.54;64.35
49585;BME280;35491;49.142;9.210;2023-03-13T00:38:22;99339.50;;;9.55;64.29
49585;BME280;35491;49.142;9.210;2023-03-13T00:39:27;99331.84;;;9.51;64.60
49585;BME280;35491;49.142;9.210;2023-03-13T00:40:30;99335.56;;;9.59;64.10
49585;BME280;35491;49.142;9.210;2023-03-13T00:41:32;99331.59;;;9.63;64.00
49585;BME280;35491;49.142;9.210;2023-03-13T00:42:36;99325.78;;;9.67;63.80
49585;BME280;35491;49.142;9.210;2023-03-13T00:43:37;99325.09;;;9.65;64.25
49585;BME280;35491;49.142;9.210;2023-03-13T00:44:41;99323.47;;;9.73;63.85
49585;BME280;35491;49.142;9.210;2023-03-13T00:45:46;99321.97;;;9.70;64.21
49585;BME280;35491;49.142;9.210;2023-03-13T00:46:52;99321.31;;;9.76;63.59
49585;BME280;35491;49.142;9.210;2023-03-13T00:47:56;99315.69;;;9.79;63.67
49585;BME280;35491;49.142;9.210;2023-03-13T00:48:57;99311.34;;;9.78;63.73
49585;BME280;35491;49.142;9.210;2023-03-13T00:50:01;99318.34;;;9.79;63.88
49585;BME280;35491;49.142;9.210;2023-03-13T00:51:03;99306.69;;;9.80;63.65
49585;BME280;35491;49.142;9.210;2023-03-13T00:52:07;99301.34;;;9.80;63.78
49585;BME280;35491;49.142;9.210;2023-03-13T00:53:09;99297.69;;;9.81;63.93
49585;BME280;35491;49.142;9.210;2023-03-13T00:54:13;99297.03;;;9.88;63.44
49585;BME280;35491;49.142;9.210;2023-03-13T00:55:14;99297.84;;;9.88;63.40
49585;BME280;35491;49.142;9.210;2023-03-13T00:56:18;99303.75;;;9.92;63.54
49585;BME280;35491;49.142;9.210;2023-03-13T00:57:20;99305.72;;;9.90;63.70
49585;BME280;35491;49.142;9.210;2023-03-13T00:58:24;99291.53;;;9.89;63.67
49585;BME280;35491;49.142;9.210;2023-03-13T00:59:26;99303.06;;;9.90;63.49
49585;BME280;35491;49.142;9.210;2023-03-13T01:00:30;99294.88;;;9.91;63.60
49585;BME280;35491;49.142;9.210;2023-03-13T01:01:32;99295.03;;;9.90;63.42
49585;BME280;35491;49.142;9.210;2023-03-13T01:02:42;99292.41;;;9.98;63.29
49585;BME280;35491;49.142;9.210;2023-03-13T01:03:44;99293.09;;;10.00;63.29
49585;BME280;35491;49.142;9.210;2023-03-13T01:04:48;99285.13;;;10.08;63.23
49585;BME280;35491;49.142;9.210;2023-03-13T01:05:54;99290.81;;;10.13;62.86
49585;BME280;35491;49.142;9.210;2023-03-13T01:06:57;99293.13;;;10.08;63.05
49585;BME280;35491;49.142;9.210;2023-03-13T01:08:01;99280.81;;;10.15;63.02
49585;BME280;35491;49.142;9.210;2023-03-13T01:09:03;99285.47;;;10.13;62.79
49585;BME280;35491;49.142;9.210;2023-03-13T01:10:07;99281.28;;;10.11;62.76
49585;BME280;35491;49.142;9.210;2023-03-13T01:11:10;99277.13;;;10.08;63.20
49585;BME280;35491;49.142;9.210;2023-03-13T01:12:14;99282.97;;;10.12;62.83
49585;BME280;35491;49.142;9.210;2023-03-13T01:13:15;99276.13;;;10.09;63.09
49585;BME280;35491;49.142;9.210;2023-03-13T01:14:19;99264.09;;;10.13;62.95
49585;BME280;35491;49.142;9.210;2023-03-13T01:15:20;99264.09;;;10.13;62.80
49585;BME280;35491;49.142;9.210;2023-03-13T01:16:26;99270.94;;;10.16;62.83
49585;BME280;35491;49.142;9.210;2023-03-13T01:17:30;99271.97;;;10.15;63.04
49585;BME280;35491;49.142;9.210;2023-03-13T01:18:33;99266.63;;;10.15;62.69
49585;BME280;35491;49.142;9.210;2023-03-13T01:19:37;99265.28;;;10.19;62.66
49585;BME280;35491;49.142;9.210;2023-03-13T01:20:41;99263.13;;;10.23;62.58
49585;BME280;35491;49.142;9.210;2023-03-13T01:21:43;99265.81;;;10.23;62.42
49585;BME280;35491;49.142;9.210;2023-03-13T01:22:47;99268.16;;;10.26;62.46
49585;BME280;35491;49.142;9.210;2023-03-13T01:23:48;99261.97;;;10.25;62.46
49585;BME280;35491;49.142;9.210;2023-03-13T01:24:52;99258.66;;;10.32;62.22
49585;BME280;35491;49.142;9.210;2023-03-13T01:25:54;99259.16;;;10.27;62.44
49585;BME280;35491;49.142;9.210;2023-03-13T01:26:58;99252.94;;;10.26;62.21
49585;BME280;35491;49.142;9.210;2023-03-13T01:28:02;99259.50;;;10.32;62.04
49585;BME280;35491;49.142;9.210;2023-03-13T01:29:03;99255.81;;;10.33;62.26
49585;BME280;35491;49.142;9.210;2023-03-13T01:30:08;99253.16;;;10.33;62.07
49585;BME280;35491;49.142;9.210;2023-03-13T01:31:10;99250.47;;;10.33;62.16
49585;BME280;35491;49.142;9.210;2023-03-13T01:33:47;99248.19;;;10.38;61.92
49585;BME280;35491;49.142;9.210;2023-03-13T01:34:52;99238.16;;;10.40;61.70
49585;BME280;35491;49.142;9.210;2023-03-13T01:36:00;99242.03;;;10.46;61.65
49585;BME280;35491;49.142;9.210;2023-03-13T01:37:05;99243.88;;;10.45;61.58
49585;BME280;35491;49.142;9.210;2023-03-13T01:39:57;99230.84;;;10.51;61.28
49585;BME280;35491;49.142;9.210;2023-03-13T01:41:03;99230.84;;;10.51;61.38
49585;BME280;35491;49.142;9.210;2023-03-13T01:42:07;99225.34;;;10.52;61.36
49585;BME280;35491;49.142;9.210;2023-03-13T01:43:14;99228.66;;;10.54;61.33
49585;BME280;35491;49.142;9.210;2023-03-13T01:44:28;99225.69;;;10.57;61.39
49585;BME280;35491;49.142;9.210;2023-03-13T01:48:51;99201.31;;;10.60;60.88
49585;BME280;35491;49.142;9.210;2023-03-13T01:49:55;99216.66;;;10.58;61.12
49585;BME280;35491;49.142;9.210;2023-03-13T01:50:56;99207.66;;;10.59;60.87
49585;BME280;35491;49.142;9.210;2023-03-13T01:52:13;99207.81;;;10.58;61.06
49585;BME280;35491;49.142;9.210;2023-03-13T01:53:33;99200.94;;;10.64;61.16
49585;BME280;35491;49.142;9.210;2023-03-13T01:54:36;99202.47;;;10.66;61.21
49585;BME280;35491;49.142;9.210;2023-03-13T01:55:41;99203.13;;;10.68;61.06
49585;BME280;35491;49.142;9.210;2023-03-13T01:56:44;99196.28;;;10.66;60.66
49585;BME280;35491;49.142;9.210;2023-03-13T01:57:50;99200.81;;;10.65;60.85
49585;BME280;35491;49.142;9.210;2023-03-13T01:58:52;99209.66;;;10.66;60.84
49585;BME280;35491;49.142;9.210;2023-03-13T02:00:03;99196.97;;;10.68;60.71
49585;BME280;35491;49.142;9.210;2023-03-13T02:02:41;99192.44;;;10.60;60.82
49585;BME280;35491;49.142;9.210;2023-03-13T02:05:21;99194.47;;;10.66;61.00
49585;BME280;35491;49.142;9.210;2023-03-13T02:06:30;99189.75;;;10.60;60.86
49585;BME280;35491;49.142;9.210;2023-03-13T02:07:36;99181.09;;;10.66;60.83
49585;BME280;35491;49.142;9.210;2023-03-13T02:08:39;99187.09;;;10.68;60.81
49585;BME280;35491;49.142;9.210;2023-03-13T02:09:46;99185.78;;;10.72;60.90
49585;BME280;35491;49.142;9.210;2023-03-13T02:10:52;99181.25;;;10.73;60.50
49585;BME280;35491;49.142;9.210;2023-03-13T02:11:59;99171.72;;;10.70;60.63
49585;BME280;35491;49.142;9.210;2023-03-13T02:13:05;99172.72;;;10.69;60.78
49585;BME280;35491;49.142;9.210;2023-03-13T02:14:06;99165.88;;;10.75;60.74
49585;BME280;35491;49.142;9.210;2023-03-13T02:15:14;99167.56;;;10.68;60.58
49585;BME280;35491;49.142;9.210;2023-03-13T02:16:16;99168.38;;;10.68;60.51
49585;BME280;35491;49.142;9.210;2023-03-13T02:17:20;99177.75;;;10.64;60.63
49585;BME280;35491;49.142;9.210;2023-03-13T02:18:21;99169.91;;;10.63;60.70
49585;BME280;35491;49.142;9.210;2023-03-13T02:19:27;99166.38;;;10.70;60.71
49585;BME280;35491;49.142;9.210;2023-03-13T02:20:31;99165.72;;;10.68;60.77
49585;BME280;35491;49.142;9.210;2023-03-13T02:21:37;99161.38;;;10.75;60.42
49585;BME280;35491;49.142;9.210;2023-03-13T02:22:42;99165.38;;;10.71;60.46
49585;BME280;35491;49.142;9.210;2023-03-13T02:23:49;99165.06;;;10.74;60.44
49585;BME280;35491;49.142;9.210;2023-03-13T02:24:55;99164.19;;;10.74;60.35
49585;BME280;35491;49.142;9.210;2023-03-13T02:26:03;99164.72;;;10.69;60.28
49585;BME280;35491;49.142;9.210;2023-03-13T02:27:05;99162.53;;;10.73;60.45
49585;BME280;35491;49.142;9.210;2023-03-13T02:28:10;99160.03;;;10.71;60.44
49585;BME280;35491;49.142;9.210;2023-03-13T02:29:12;99161.88;;;10.79;60.17
49585;BME280;35491;49.142;9.210;2023-03-13T02:30:18;99149.69;;;10.76;60.40
49585;BME280;35491;49.142;9.210;2023-03-13T02:31:19;99155.69;;;10.79;60.19
49585;BME280;35491;49.142;9.210;2023-03-13T02:32:23;99151.00;;;10.81;60.20
49585;BME280;35491;49.142;9.210;2023-03-13T02:33:26;99146.34;;;10.83;59.98
49585;BME280;35491;49.142;9.210;2023-03-13T02:34:31;99155.03;;;10.85;60.15
49585;BME280;35491;49.142;9.210;2023-03-13T02:35:34;99146.66;;;10.80;60.07
49585;BME280;35491;49.142;9.210;2023-03-13T02:36:39;99156.03;;;10.84;60.24
49585;BME280;35491;49.142;9.210;2023-03-13T02:37:41;99143.84;;;10.81;60.16
49585;BME280;35491;49.142;9.210;2023-03-13T02:38:47;99147.84;;;10.85;60.03
49585;BME280;35491;49.142;9.210;2023-03-13T02:39:54;99142.81;;;10.90;59.76
49585;BME280;35491;49.142;9.210;2023-03-13T02:40:56;99135.63;;;10.91;59.70
49585;BME280;35491;49.142;9.210;2023-03-13T02:42:18;99128.94;;;10.95;59.78
49585;BME280;35491;49.142;9.210;2023-03-13T02:43:25;99125.75;;;11.00;59.65
49585;BME280;35491;49.142;9.210;2023-03-13T02:44:34;99125.59;;;10.93;60.15
49585;BME280;35491;49.142;9.210;2023-03-13T02:45:40;99125.25;;;10.96;59.82
49585;BME280;35491;49.142;9.210;2023-03-13T02:46:45;99128.94;;;10.95;60.22
49585;BME280;35491;49.142;9.210;2023-03-13T02:47:49;99123.59;;;10.95;60.47
49585;BME280;35491;49.142;9.210;2023-03-13T02:48:52;99123.94;;;10.92;60.49
49585;BME280;35491;49.142;9.210;2023-03-13T02:49:56;99121.44;;;10.90;60.55
49585;BME280;35491;49.142;9.210;2023-03-13T02:50:57;99123.94;;;10.92;60.56
49585;BME280;35491;49.142;9.210;2023-03-13T02:51:59;99111.56;;;10.91;60.63
49585;BME280;35491;49.142;9.210;2023-03-13T02:53:08;99124.75;;;10.84;61.16
49585;BME280;35491;49.142;9.210;2023-03-13T02:54:10;99115.56;;;10.87;61.16
49585;BME280;35491;49.142;9.210;2023-03-13T02:55:15;99115.56;;;10.87;61.18
49585;BME280;35491;49.142;9.210;2023-03-13T02:56:22;99114.75;;;10.86;61.09
49585;BME280;35491;49.142;9.210;2023-03-13T02:57:31;99111.06;;;10.87;61.21
49585;BME280;35491;49.142;9.210;2023-03-13T02:58:37;99121.59;;;10.89;61.57
49585;BME280;35491;49.142;9.210;2023-03-13T02:59:41;99113.06;;;10.85;61.38
49585;BME280;35491;49.142;9.210;2023-03-13T03:00:48;99114.41;;;10.89;61.58
49585;BME280;35491;49.142;9.210;2023-03-13T03:01:54;99110.06;;;10.88;61.48
49585;BME280;35491;49.142;9.210;2023-03-13T03:02:55;99112.56;;;10.82;61.87
49585;BME280;35491;49.142;9.210;2023-03-13T03:03:59;99109.22;;;10.80;62.26
49585;BME280;35491;49.142;9.210;2023-03-13T03:05:00;99101.22;;;10.71;62.43
49585;BME280;35491;49.142;9.210;2023-03-13T03:06:04;99106.56;;;10.71;62.73
49585;BME280;35491;49.142;9.210;2023-03-13T03:07:06;99099.38;;;10.64;63.18
49585;BME280;35491;49.142;9.210;2023-03-13T03:08:15;99095.38;;;10.68;62.91
49585;BME280;35491;49.142;9.210;2023-03-13T03:09:27;99104.91;;;10.70;63.10
49585;BME280;35491;49.142;9.210;2023-03-13T03:10:34;99097.88;;;10.69;63.04
49585;BME280;35491;49.142;9.210;2023-03-13T03:11:41;99097.38;;;10.66;63.05
49585;BME280;35491;49.142;9.210;2023-03-13T03:12:47;99104.91;;;10.70;62.88
49585;BME280;35491;49.142;9.210;2023-03-13T03:13:48;99098.25;;;10.66;63.11
49585;BME280;35491;49.142;9.210;2023-03-13T03:14:52;99096.56;;;10.65;63.17
49585;BME280;35491;49.142;9.210;2023-03-13T03:15:54;99099.91;;;10.67;63.53
49585;BME280;35491;49.142;9.210;2023-03-13T03:17:10;99100.41;;;10.71;63.18
49585;BME280;35491;49.142;9.210;2023-03-13T03:18:14;99100.72;;;10.68;63.42
49585;BME280;35491;49.142;9.210;2023-03-13T03:19:15;99103.72;;;10.65;63.23
49585;BME280;35491;49.142;9.210;2023-03-13T03:20:19;99107.59;;;10.62;63.42
49585;BME280;35491;49.142;9.210;2023-03-13T03:21:20;99105.59;;;10.56;63.72
49585;BME280;35491;49.142;9.210;2023-03-13T03:22:24;99110.44;;;10.60;63.44
49585;BME280;35491;49.142;9.210;2023-03-13T03:23:25;99105.25;;;10.67;63.35
49585;BME280;35491;49.142;9.210;2023-03-13T03:24:29;99102.91;;;10.64;63.34
49585;BME280;35491;49.142;9.210;2023-03-13T03:25:30;99110.75;;;10.57;63.86
49585;BME280;35491;49.142;9.210;2023-03-13T03:26:34;99111.75;;;10.56;64.13
49585;BME280;35491;49.142;9.210;2023-03-13T03:27:35;99099.25;;;10.57;64.31
49585;BME280;35491;49.142;9.210;2023-03-13T03:28:42;99105.09;;;10.60;64.02
49585;BME280;35491;49.142;9.210;2023-03-13T03:29:43;99091.22;;;10.65;63.97
49585;BME280;35491;49.142;9.210;2023-03-13T03:30:47;99085.03;;;10.65;63.88
49585;BME280;35491;49.142;9.210;2023-03-13T03:31:48;99078.34;;;10.69;63.77
49585;BME280;35491;49.142;9.210;2023-03-13T03:32:52;99079.66;;;10.73;63.67
49585;BME280;35491;49.142;9.210;2023-03-13T03:33:53;99074.50;;;10.71;63.67
49585;BME280;35491;49.142;9.210;2023-03-13T03:34:57;99076.69;;;10.68;63.77
49585;BME280;35491;49.142;9.210;2023-03-13T03:35:58;99076.16;;;10.72;63.61
49585;BME280;35491;49.142;9.210;2023-03-13T03:37:03;99077.69;;;10.67;63.81
49585;BME280;35491;49.142;9.210;2023-03-13T03:38:04;99076.34;;;10.71;63.47
49585;BME280;35491;49.142;9.210;2023-03-13T03:39:07;99071.66;;;10.65;64.04
49585;BME280;35491;49.142;9.210;2023-03-13T03:40:09;99060.47;;;10.69;63.77
49585;BME280;35491;49.142;9.210;2023-03-13T03:41:14;99065.81;;;10.69;63.76
49585;BME280;35491;49.142;9.210;2023-03-13T03:42:15;99059.63;;;10.69;63.94
49585;BME280;35491;49.142;9.210;2023-03-13T03:43:18;99054.97;;;10.63;64.23
49585;BME280;35491;49.142;9.210;2023-03-13T03:44:22;99053.81;;;10.65;64.31
49585;BME280;35491;49.142;9.210;2023-03-13T03:45:26;99061.31;;;10.61;64.25
49585;BME280;35491;49.142;9.210;2023-03-13T03:46:27;99060.16;;;10.64;64.40
49585;BME280;35491;49.142;9.210;2023-03-13T03:47:31;99063.16;;;10.61;64.54
49585;BME280;35491;49.142;9.210;2023-03-13T03:48:32;99057.81;;;10.61;64.05
49585;BME280;35491;49.142;9.210;2023-03-13T03:49:36;99049.47;;;10.64;64.19
49585;BME280;35491;49.142;9.210;2023-03-13T03:50:37;99050.47;;;10.63;64.43
49585;BME280;35491;49.142;9.210;2023-03-13T03:51:40;99052.44;;;10.69;64.32
49585;BME280;35491;49.142;9.210;2023-03-13T03:52:42;99042.41;;;10.71;63.96
49585;BME280;35491;49.142;9.210;2023-03-13T03:53:45;99054.13;;;10.70;64.12
49585;BME280;35491;49.142;9.210;2023-03-13T03:54:46;99048.25;;;10.75;63.97
49585;BME280;35491;49.142;9.210;2023-03-13T03:55:50;99048.94;;;10.69;64.24
49585;BME280;35491;49.142;9.210;2023-03-13T03:56:52;99044.41;;;10.69;64.33
49585;BME280;35491;49.142;9.210;2023-03-13T04:10:08;99022.16;;;10.85;64.56
49585;BME280;35491;49.142;9.210;2023-03-13T04:11:12;99026.81;;;10.91;64.36
49585;BME280;35491;49.142;9.210;2023-03-13T04:12:13;99016.97;;;10.92;64.13
49585;BME280;35491;49.142;9.210;2023-03-13T04:13:24;99015.97;;;10.93;63.92
49585;BME280;35491;49.142;9.210;2023-03-13T04:14:25;99009.78;;;10.92;64.10
49585;BME280;35491;49.142;9.210;2023-03-13T04:15:29;99006.28;;;10.92;64.08
49585;BME280;35491;49.142;9.210;2023-03-13T04:16:30;99011.13;;;10.88;64.31
49585;BME280;35491;49.142;9.210;2023-03-13T04:17:35;99010.44;;;10.95;64.38
49585;BME280;35491;49.142;9.210;2023-03-13T04:18:37;99007.06;;;11.01;63.82
49585;BME280;35491;49.142;9.210;2023-03-13T04:19:41;99012.25;;;11.02;63.73
49585;BME280;35491;49.142;9.210;2023-03-13T04:20:43;99007.59;;;11.04;64.01
49585;BME280;35491;49.142;9.210;2023-03-13T04:21:46;99014.41;;;11.07;63.85
49585;BME280;35491;49.142;9.210;2023-03-13T04:22:49;99003.88;;;11.05;64.28
49585;BME280;35491;49.142;9.210;2023-03-13T04:23:53;99005.72;;;11.05;64.01
49585;BME280;35491;49.142;9.210;2023-03-13T04:25:41;99004.53;;;11.07;64.32
49585;BME280;35491;49.142;9.210;2023-03-13T04:26:47;98998.38;;;11.07;63.97
49585;BME280;35491;49.142;9.210;2023-03-13T04:27:51;99002.34;;;11.11;64.08
49585;BME280;35491;49.142;9.210;2023-03-13T04:28:52;99000.00;;;11.16;64.17
49585;BME280;35491;49.142;9.210;2023-03-13T04:29:56;99003.50;;;11.17;64.30
49585;BME280;35491;49.142;9.210;2023-03-13T04:30:57;99005.66;;;11.21;64.04
49585;BME280;35491;49.142;9.210;2023-03-13T04:32:03;99013.00;;;11.19;64.10
49585;BME280;35491;49.142;9.210;2023-03-13T04:33:07;99014.53;;;11.22;64.44
49585;BME280;35491;49.142;9.210;2023-03-13T04:34:11;99020.22;;;11.19;64.41
49585;BME280;35491;49.142;9.210;2023-03-13T04:35:12;99014.16;;;11.25;64.11
49585;BME280;35491;49.142;9.210;2023-03-13T04:36:17;99010.47;;;11.26;64.51
49585;BME280;35491;49.142;9.210;2023-03-13T04:37:19;99012.84;;;11.21;64.47
49585;BME280;35491;49.142;9.210;2023-03-13T04:38:23;99016.50;;;11.28;64.29
49585;BME280;35491;49.142;9.210;2023-03-13T04:39:25;99015.97;;;11.33;64.59
49585;BME280;35491;49.142;9.210;2023-03-13T04:40:29;99025.19;;;11.30;64.56
49585;BME280;35491;49.142;9.210;2023-03-13T04:41:59;99019.13;;;11.36;64.31
49585;BME280;35491;49.142;9.210;2023-03-13T04:43:18;99023.28;;;11.39;64.63
49585;BME280;35491;49.142;9.210;2023-03-13T04:44:21;99019.13;;;11.36;64.64
49585;BME280;35491;49.142;9.210;2023-03-13T04:45:25;99011.41;;;11.42;64.89
49585;BME280;35491;49.142;9.210;2023-03-13T04:46:29;99026.75;;;11.48;64.50
49585;BME280;35491;49.142;9.210;2023-03-13T04:47:35;99014.38;;;11.47;64.48
49585;BME280;35491;49.142;9.210;2023-03-13T04:48:50;99020.09;;;11.44;64.89
49585;BME280;35491;49.142;9.210;2023-03-13T04:49:51;99011.41;;;11.42;65.38
49585;BME280;35491;49.142;9.210;2023-03-13T04:50:55;99022.28;;;11.40;65.68
49585;BME280;35491;49.142;9.210;2023-03-13T04:51:59;99026.09;;;11.46;65.37
49585;BME280;35491;49.142;9.210;2023-03-13T04:53:00;99021.06;;;11.51;65.14
49585;BME280;35491;49.142;9.210;2023-03-13T04:54:04;99023.75;;;11.51;65.45
49585;BME280;35491;49.142;9.210;2023-03-13T04:55:06;99024.75;;;11.50;65.43
49585;BME280;35491;49.142;9.210;2023-03-13T04:56:10;99020.75;;;11.46;65.52
49585;BME280;35491;49.142;9.210;2023-03-13T04:57:12;99030.09;;;11.50;65.66
49585;BME280;35491;49.142;9.210;2023-03-13T04:58:18;99026.56;;;11.49;65.92
49585;BME280;35491;49.142;9.210;2023-03-13T04:59:20;99026.06;;;11.54;65.60
49585;BME280;35491;49.142;9.210;2023-03-13T05:00:24;99022.38;;;11.55;65.87
49585;BME280;35491;49.142;9.210;2023-03-13T05:01:25;99017.00;;;11.55;65.93
49585;BME280;35491;49.142;9.210;2023-03-13T05:02:29;99015.34;;;11.54;66.06
49585;BME280;35491;49.142;9.210;2023-03-13T05:03:30;99013.81;;;11.60;65.55
49585;BME280;35491;49.142;9.210;2023-03-13T05:20:21;98982.28;;;11.70;67.06
49585;BME280;35491;49.142;9.210;2023-03-13T05:22:03;98981.94;;;11.73;67.08
49585;BME280;35491;49.142;9.210;2023-03-13T05:23:50;98978.41;;;11.73;67.31
49585;BME280;35491;49.142;9.210;2023-03-13T05:25:08;98983.63;;;11.74;67.20
49585;BME280;35491;49.142;9.210;2023-03-13T05:26:31;98978.59;;;11.71;67.77
49585;BME280;35491;49.142;9.210;2023-03-13T05:27:49;98977.94;;;11.69;68.08
49585;BME280;35491;49.142;9.210;2023-03-13T05:28:52;98982.94;;;11.72;68.17
49585;BME280;35491;49.142;9.210;2023-03-13T05:29:54;98987.59;;;11.78;67.62
49585;BME280;35491;49.142;9.210;2023-03-13T05:30:58;98985.63;;;11.72;68.30
49585;BME280;35491;49.142;9.210;2023-03-13T05:32:04;98981.41;;;11.78;67.92
49585;BME280;35491;49.142;9.210;2023-03-13T05:33:06;98986.44;;;11.73;68.28
49585;BME280;35491;49.142;9.210;2023-03-13T05:34:10;98983.78;;;11.73;68.41
49585;BME280;35491;49.142;9.210;2023-03-13T05:35:11;98979.38;;;11.80;68.04
49585;BME280;35491;49.142;9.210;2023-03-13T05:37:38;98973.66;;;11.83;68.04
49585;BME280;35491;49.142;9.210;2023-03-13T05:38:42;98978.34;;;11.81;68.33
49585;BME280;35491;49.142;9.210;2023-03-13T05:39:46;98976.19;;;11.84;68.36
49585;BME280;35491;49.142;9.210;2023-03-13T05:40:47;98982.41;;;11.77;69.19
49585;BME280;35491;49.142;9.210;2023-03-13T05:41:51;98976.34;;;11.83;69.43
49585;BME280;35491;49.142;9.210;2023-03-13T05:42:52;98973.00;;;11.81;70.15
49585;BME280;35491;49.142;9.210;2023-03-13T05:43:56;98973.00;;;11.81;70.40
49585;BME280;35491;49.142;9.210;2023-03-13T05:44:57;98969.69;;;11.79;71.39
49585;BME280;35491;49.142;9.210;2023-03-13T05:46:01;98980.41;;;11.79;71.58
49585;BME280;35491;49.142;9.210;2023-03-13T05:47:02;98982.75;;;11.74;72.44
49585;BME280;35491;49.142;9.210;2023-03-13T05:48:06;98979.19;;;11.81;71.66
49585;BME280;35491;49.142;9.210;2023-03-13T05:49:12;98983.34;;;11.84;72.17
49585;BME280;35491;49.142;9.210;2023-03-13T05:50:16;98979.75;;;11.77;72.81
49585;BME280;35491;49.142;9.210;2023-03-13T05:51:17;98978.34;;;11.81;72.70
49585;BME280;35491;49.142;9.210;2023-03-13T05:52:21;98977.06;;;11.77;72.72
49585;BME280;35491;49.142;9.210;2023-03-13T05:53:26;98980.09;;;11.74;73.32
49585;BME280;35491;49.142;9.210;2023-03-13T05:55:03;98971.34;;;11.80;73.02
49585;BME280;35491;49.142;9.210;2023-03-13T05:56:15;98966.81;;;11.80;73.24
49585;BME280;35491;49.142;9.210;2023-03-13T05:57:16;98974.56;;;11.75;73.71
49585;BME280;35491;49.142;9.210;2023-03-13T05:58:23;98967.28;;;11.84;73.13
49585;BME280;35491;49.142;9.210;2023-03-13T05:59:26;98962.94;;;11.83;73.11
49585;BME280;35491;49.142;9.210;2023-03-13T06:00:38;98967.28;;;11.84;73.11
49585;BME280;35491;49.142;9.210;2023-03-13T06:01:42;98962.88;;;11.91;72.88
49585;BME280;35491;49.142;9.210;2023-03-13T06:02:57;98965.75;;;11.90;72.99
49585;BME280;35491;49.142;9.210;2023-03-13T06:05:30;98968.63;;;11.88;73.07
49585;BME280;35491;49.142;9.210;2023-03-13T06:06:47;98969.34;;;11.97;72.49
49585;BME280;35491;49.142;9.210;2023-03-13T06:07:53;98958.53;;;11.98;72.28
49585;BME280;35491;49.142;9.210;2023-03-13T06:09:27;98969.84;;;12.00;72.33
49585;BME280;35491;49.142;9.210;2023-03-13T06:10:31;98967.56;;;11.97;72.71
49585;BME280;35491;49.142;9.210;2023-03-13T06:11:38;98964.88;;;11.97;72.49
49585;BME280;35491;49.142;9.210;2023-03-13T06:15:49;98967.31;;;12.07;72.70
49585;BME280;35491;49.142;9.210;2023-03-13T06:16:50;98966.47;;;12.07;72.84
49585;BME280;35491;49.142;9.210;2023-03-13T06:18:09;98962.31;;;12.04;72.92
49585;BME280;35491;49.142;9.210;2023-03-13T06:19:17;98963.25;;;12.11;72.59
49585;BME280;35491;49.142;9.210;2023-03-13T06:20:28;98959.09;;;12.09;73.06
49585;BME280;35491;49.142;9.210;2023-03-13T06:21:32;98964.06;;;12.12;73.06
49585;BME280;35491;49.142;9.210;2023-03-13T06:22:33;98959.09;;;12.09;73.01
49585;BME280;35491;49.142;9.210;2023-03-13T06:23:44;98959.38;;;12.14;73.19
49585;BME280;35491;49.142;9.210;2023-03-13T06:24:51;98956.69;;;12.14;73.20
49585;BME280;35491;49.142;9.210;2023-03-13T06:26:05;98951.00;;;12.17;72.34
49585;BME280;35491;49.142;9.210;2023-03-13T06:27:13;98951.16;;;12.15;72.68
49585;BME280;35491;49.142;9.210;2023-03-13T06:28:16;98948.94;;;12.19;72.71
49585;BME280;35491;49.142;9.210;2023-03-13T06:29:17;98947.00;;;12.13;72.86
49585;BME280;35491;49.142;9.210;2023-03-13T06:30:27;98950.34;;;12.15;72.71